sensor_id;sensor_type;location;lat;lon;timestamp;P1;durP1;ratioP1;P2;durP2;ratioP2
37785;SDS011;23625;48.784;9.336;2023-07-29T00:01:08;6.00;;;1.65;;
37785;SDS011;23625;48.784;9.336;2023-07-29T00:03:33;3.40;;;1.80;;
37785;SDS011;23625;48.784;9.336;2023-07-29T00:05:59;3.78;;;1.50;;
37785;SDS011;23625;48.784;9.336;2023-07-29T00:08:25;2.10;;;1.48;;
37785;SDS011;23625;48.784;9.336;2023-07-29T00:10:50;4.57;;;1.88;;
37785;SDS011;23625;48.784;9.336;2023-07-29T00:13:16;8.55;;;2.25;;
37785;SDS011;23625;48.784;9.336;2023-07-29T00:15:41;4.70;;;1.58;;
37785;SDS011;23625;48.784;9.336;2023-07-29T00:18:07;3.78;;;1.80;;
37785;SDS011;23625;48.784;9.336;2023-07-29T00:20:32;5.78;;;1.63;;
37785;SDS011;23625;48.784;9.336;2023-07-29T00:22:58;3.55;;;1.52;;
37785;SDS011;23625;48.784;9.336;2023-07-29T00:25:24;1.92;;;1.50;;
37785;SDS011;23625;48.784;9.336;2023-07-29T00:27:50;2.17;;;1.25;;
37785;SDS011;23625;48.784;9.336;2023-07-29T00:30:15;1.30;;;0.90;;
37785;SDS011;23625;48.784;9.336;2023-07-29T00:32:41;2.85;;;1.17;;
37785;SDS011;23625;48.784;9.336;2023-07-29T00:35:07;3.03;;;1.00;;
37785;SDS011;23625;48.784;9.336;2023-07-29T00:37:33;4.30;;;1.08;;
37785;SDS011;23625;48.784;9.336;2023-07-29T00:39:58;2.70;;;1.33;;
37785;SDS011;23625;48.784;9.336;2023-07-29T00:42:24;3.55;;;1.45;;
37785;SDS011;23625;48.784;9.336;2023-07-29T00:44:50;2.13;;;1.05;;
37785;SDS011;23625;48.784;9.336;2023-07-29T00:47:16;3.15;;;1.10;;
37785;SDS011;23625;48.784;9.336;2023-07-29T00:49:44;2.58;;;1.23;;
37785;SDS011;23625;48.784;9.336;2023-07-29T00:52:10;1.35;;;1.10;;
37785;SDS011;23625;48.784;9.336;2023-07-29T00:54:38;2.47;;;1.10;;
37785;SDS011;23625;48.784;9.336;2023-07-29T00:57:04;5.85;;;1.30;;
37785;SDS011;23625;48.784;9.336;2023-07-29T00:59:50;3.65;;;0.90;;
37785;SDS011;23625;48.784;9.336;2023-07-29T01:02:16;6.72;;;1.50;;
37785;SDS011;23625;48.784;9.336;2023-07-29T01:04:42;1.33;;;0.90;;
37785;SDS011;23625;48.784;9.336;2023-07-29T01:09:45;6.13;;;1.27;;
37785;SDS011;23625;48.784;9.336;2023-07-29T01:12:27;1.40;;;0.88;;
37785;SDS011;23625;48.784;9.336;2023-07-29T01:15:16;4.97;;;1.10;;
37785;SDS011;23625;48.784;9.336;2023-07-29T01:17:51;1.98;;;0.90;;
37785;SDS011;23625;48.784;9.336;2023-07-29T01:20:20;1.50;;;0.98;;
37785;SDS011;23625;48.784;9.336;2023-07-29T01:22:48;6.32;;;1.08;;
37785;SDS011;23625;48.784;9.336;2023-07-29T01:25:14;1.65;;;1.10;;
37785;SDS011;23625;48.784;9.336;2023-07-29T01:27:41;2.85;;;1.08;;
37785;SDS011;23625;48.784;9.336;2023-07-29T01:30:08;2.75;;;1.20;;
37785;SDS011;23625;48.784;9.336;2023-07-29T01:32:42;1.48;;;1.02;;
37785;SDS011;23625;48.784;9.336;2023-07-29T01:35:33;3.95;;;1.20;;
37785;SDS011;23625;48.784;9.336;2023-07-29T01:38:24;2.10;;;1.45;;
37785;SDS011;23625;48.784;9.336;2023-07-29T01:40:56;3.20;;;1.23;;
37785;SDS011;23625;48.784;9.336;2023-07-29T01:43:26;4.85;;;0.98;;
37785;SDS011;23625;48.784;9.336;2023-07-29T01:45:52;6.65;;;1.50;;
37785;SDS011;23625;48.784;9.336;2023-07-29T01:48:18;1.60;;;1.08;;
37785;SDS011;23625;48.784;9.336;2023-07-29T01:50:44;3.92;;;0.93;;
37785;SDS011;23625;48.784;9.336;2023-07-29T01:53:09;4.05;;;1.70;;
37785;SDS011;23625;48.784;9.336;2023-07-29T01:55:35;7.13;;;1.50;;
37785;SDS011;23625;48.784;9.336;2023-07-29T01:58:00;3.15;;;0.95;;
37785;SDS011;23625;48.784;9.336;2023-07-29T02:00:26;2.40;;;1.02;;
37785;SDS011;23625;48.784;9.336;2023-07-29T02:02:52;3.30;;;1.33;;
37785;SDS011;23625;48.784;9.336;2023-07-29T02:05:17;1.48;;;1.05;;
37785;SDS011;23625;48.784;9.336;2023-07-29T02:07:43;2.75;;;1.35;;
37785;SDS011;23625;48.784;9.336;2023-07-29T02:10:08;2.97;;;1.20;;
37785;SDS011;23625;48.784;9.336;2023-07-29T02:12:34;2.90;;;1.40;;
37785;SDS011;23625;48.784;9.336;2023-07-29T02:15:00;4.78;;;1.40;;
37785;SDS011;23625;48.784;9.336;2023-07-29T02:17:25;2.50;;;1.35;;
37785;SDS011;23625;48.784;9.336;2023-07-29T02:19:51;2.55;;;1.17;;
37785;SDS011;23625;48.784;9.336;2023-07-29T02:22:17;7.60;;;1.30;;
37785;SDS011;23625;48.784;9.336;2023-07-29T02:24:43;2.47;;;1.40;;
37785;SDS011;23625;48.784;9.336;2023-07-29T02:27:10;4.25;;;1.10;;
37785;SDS011;23625;48.784;9.336;2023-07-29T02:29:36;3.17;;;1.23;;
37785;SDS011;23625;48.784;9.336;2023-07-29T02:32:02;2.10;;;1.40;;
37785;SDS011;23625;48.784;9.336;2023-07-29T02:34:28;2.05;;;1.17;;
37785;SDS011;23625;48.784;9.336;2023-07-29T02:36:54;2.40;;;1.20;;
37785;SDS011;23625;48.784;9.336;2023-07-29T02:39:19;2.75;;;1.30;;
37785;SDS011;23625;48.784;9.336;2023-07-29T02:41:45;3.03;;;1.23;;
37785;SDS011;23625;48.784;9.336;2023-07-29T02:44:10;3.58;;;1.50;;
37785;SDS011;23625;48.784;9.336;2023-07-29T02:46:36;4.47;;;1.40;;
37785;SDS011;23625;48.784;9.336;2023-07-29T02:49:02;1.48;;;1.17;;
37785;SDS011;23625;48.784;9.336;2023-07-29T02:51:29;2.47;;;1.27;;
37785;SDS011;23625;48.784;9.336;2023-07-29T02:53:55;1.70;;;1.33;;
37785;SDS011;23625;48.784;9.336;2023-07-29T02:56:21;3.95;;;1.40;;
37785;SDS011;23625;48.784;9.336;2023-07-29T02:58:46;7.55;;;1.38;;
37785;SDS011;23625;48.784;9.336;2023-07-29T03:01:12;4.57;;;1.30;;
37785;SDS011;23625;48.784;9.336;2023-07-29T03:03:39;2.63;;;1.15;;
37785;SDS011;23625;48.784;9.336;2023-07-29T03:06:05;4.32;;;1.13;;
37785;SDS011;23625;48.784;9.336;2023-07-29T03:08:32;3.53;;;1.60;;
37785;SDS011;23625;48.784;9.336;2023-07-29T03:10:59;4.65;;;1.48;;
37785;SDS011;23625;48.784;9.336;2023-07-29T03:13:31;6.95;;;1.40;;
37785;SDS011;23625;48.784;9.336;2023-07-29T03:16:04;2.83;;;1.50;;
37785;SDS011;23625;48.784;9.336;2023-07-29T03:18:33;2.67;;;1.42;;
37785;SDS011;23625;48.784;9.336;2023-07-29T03:20:59;6.22;;;2.00;;
37785;SDS011;23625;48.784;9.336;2023-07-29T03:23:25;5.60;;;1.50;;
37785;SDS011;23625;48.784;9.336;2023-07-29T03:25:51;2.45;;;1.40;;
37785;SDS011;23625;48.784;9.336;2023-07-29T03:28:21;3.17;;;1.30;;
37785;SDS011;23625;48.784;9.336;2023-07-29T03:30:51;2.97;;;1.33;;
37785;SDS011;23625;48.784;9.336;2023-07-29T03:33:16;5.03;;;1.67;;
37785;SDS011;23625;48.784;9.336;2023-07-29T03:35:42;3.30;;;1.60;;
37785;SDS011;23625;48.784;9.336;2023-07-29T03:38:09;2.92;;;1.30;;
37785;SDS011;23625;48.784;9.336;2023-07-29T03:40:36;3.70;;;1.40;;
37785;SDS011;23625;48.784;9.336;2023-07-29T03:43:02;5.22;;;1.58;;
37785;SDS011;23625;48.784;9.336;2023-07-29T03:45:28;8.50;;;2.03;;
37785;SDS011;23625;48.784;9.336;2023-07-29T03:47:53;8.68;;;1.83;;
37785;SDS011;23625;48.784;9.336;2023-07-29T03:50:19;2.47;;;1.60;;
37785;SDS011;23625;48.784;9.336;2023-07-29T03:52:45;9.32;;;1.45;;
37785;SDS011;23625;48.784;9.336;2023-07-29T03:55:10;4.53;;;1.80;;
37785;SDS011;23625;48.784;9.336;2023-07-29T03:57:36;5.22;;;1.80;;
37785;SDS011;23625;48.784;9.336;2023-07-29T04:00:01;5.53;;;1.30;;
37785;SDS011;23625;48.784;9.336;2023-07-29T04:02:28;11.82;;;3.30;;
37785;SDS011;23625;48.784;9.336;2023-07-29T04:04:53;2.47;;;1.50;;
37785;SDS011;23625;48.784;9.336;2023-07-29T04:07:19;3.90;;;1.60;;
37785;SDS011;23625;48.784;9.336;2023-07-29T04:09:44;3.67;;;1.30;;
37785;SDS011;23625;48.784;9.336;2023-07-29T04:12:10;5.82;;;1.60;;
37785;SDS011;23625;48.784;9.336;2023-07-29T04:14:36;5.00;;;1.60;;
37785;SDS011;23625;48.784;9.336;2023-07-29T04:17:01;3.72;;;1.83;;
37785;SDS011;23625;48.784;9.336;2023-07-29T04:19:27;1.50;;;1.40;;
37785;SDS011;23625;48.784;9.336;2023-07-29T04:21:53;9.48;;;1.50;;
37785;SDS011;23625;48.784;9.336;2023-07-29T04:24:18;4.78;;;1.90;;
37785;SDS011;23625;48.784;9.336;2023-07-29T04:26:45;11.43;;;2.05;;
37785;SDS011;23625;48.784;9.336;2023-07-29T04:29:11;2.13;;;1.77;;
37785;SDS011;23625;48.784;9.336;2023-07-29T04:31:37;5.68;;;2.13;;
37785;SDS011;23625;48.784;9.336;2023-07-29T04:34:02;8.00;;;2.10;;
37785;SDS011;23625;48.784;9.336;2023-07-29T04:36:29;3.00;;;2.00;;
37785;SDS011;23625;48.784;9.336;2023-07-29T04:38:55;4.82;;;2.10;;
37785;SDS011;23625;48.784;9.336;2023-07-29T04:41:21;2.85;;;2.15;;
37785;SDS011;23625;48.784;9.336;2023-07-29T04:43:46;3.22;;;1.60;;
37785;SDS011;23625;48.784;9.336;2023-07-29T04:46:12;7.05;;;2.58;;
37785;SDS011;23625;48.784;9.336;2023-07-29T04:48:37;4.25;;;1.70;;
37785;SDS011;23625;48.784;9.336;2023-07-29T04:51:03;5.32;;;2.17;;
37785;SDS011;23625;48.784;9.336;2023-07-29T04:53:29;2.92;;;2.17;;
37785;SDS011;23625;48.784;9.336;2023-07-29T04:55:54;3.20;;;2.65;;
37785;SDS011;23625;48.784;9.336;2023-07-29T04:58:20;4.07;;;2.35;;
37785;SDS011;23625;48.784;9.336;2023-07-29T05:00:46;4.25;;;1.92;;
37785;SDS011;23625;48.784;9.336;2023-07-29T05:03:12;5.28;;;2.17;;
37785;SDS011;23625;48.784;9.336;2023-07-29T05:05:37;5.43;;;2.25;;
37785;SDS011;23625;48.784;9.336;2023-07-29T05:08:03;5.28;;;2.15;;
37785;SDS011;23625;48.784;9.336;2023-07-29T05:10:29;6.38;;;2.35;;
37785;SDS011;23625;48.784;9.336;2023-07-29T05:12:54;4.35;;;2.22;;
37785;SDS011;23625;48.784;9.336;2023-07-29T05:15:20;3.28;;;1.98;;
37785;SDS011;23625;48.784;9.336;2023-07-29T05:17:45;6.28;;;2.65;;
37785;SDS011;23625;48.784;9.336;2023-07-29T05:20:11;4.78;;;2.35;;
37785;SDS011;23625;48.784;9.336;2023-07-29T05:22:37;4.60;;;2.45;;
37785;SDS011;23625;48.784;9.336;2023-07-29T05:25:02;5.40;;;2.78;;
37785;SDS011;23625;48.784;9.336;2023-07-29T05:27:28;5.03;;;2.03;;
37785;SDS011;23625;48.784;9.336;2023-07-29T05:29:54;8.13;;;2.22;;
37785;SDS011;23625;48.784;9.336;2023-07-29T05:32:19;8.23;;;2.60;;
37785;SDS011;23625;48.784;9.336;2023-07-29T05:34:45;6.25;;;2.47;;
37785;SDS011;23625;48.784;9.336;2023-07-29T05:37:10;7.55;;;2.40;;
37785;SDS011;23625;48.784;9.336;2023-07-29T05:39:36;9.40;;;2.45;;
37785;SDS011;23625;48.784;9.336;2023-07-29T05:42:02;7.70;;;2.28;;
37785;SDS011;23625;48.784;9.336;2023-07-29T05:44:28;4.10;;;2.20;;
37785;SDS011;23625;48.784;9.336;2023-07-29T05:46:55;8.27;;;2.30;;
37785;SDS011;23625;48.784;9.336;2023-07-29T05:49:21;6.07;;;2.50;;
37785;SDS011;23625;48.784;9.336;2023-07-29T05:51:47;7.88;;;2.03;;
37785;SDS011;23625;48.784;9.336;2023-07-29T05:54:13;5.22;;;2.10;;
37785;SDS011;23625;48.784;9.336;2023-07-29T05:56:38;5.60;;;1.80;;
37785;SDS011;23625;48.784;9.336;2023-07-29T05:59:04;2.83;;;1.98;;
37785;SDS011;23625;48.784;9.336;2023-07-29T06:01:30;3.97;;;2.08;;
37785;SDS011;23625;48.784;9.336;2023-07-29T06:03:55;5.47;;;2.00;;
37785;SDS011;23625;48.784;9.336;2023-07-29T06:06:21;3.50;;;2.00;;
37785;SDS011;23625;48.784;9.336;2023-07-29T06:08:49;5.25;;;1.88;;
37785;SDS011;23625;48.784;9.336;2023-07-29T06:11:15;4.50;;;1.90;;
37785;SDS011;23625;48.784;9.336;2023-07-29T06:13:40;6.57;;;2.17;;
37785;SDS011;23625;48.784;9.336;2023-07-29T06:16:06;4.03;;;1.92;;
37785;SDS011;23625;48.784;9.336;2023-07-29T06:18:31;5.30;;;2.03;;
37785;SDS011;23625;48.784;9.336;2023-07-29T06:20:57;5.78;;;2.15;;
37785;SDS011;23625;48.784;9.336;2023-07-29T06:23:23;3.03;;;1.77;;
37785;SDS011;23625;48.784;9.336;2023-07-29T06:25:48;8.13;;;1.58;;
37785;SDS011;23625;48.784;9.336;2023-07-29T06:28:14;3.85;;;1.98;;
37785;SDS011;23625;48.784;9.336;2023-07-29T06:30:39;3.40;;;1.67;;
37785;SDS011;23625;48.784;9.336;2023-07-29T06:33:05;6.30;;;1.88;;
37785;SDS011;23625;48.784;9.336;2023-07-29T06:35:31;4.47;;;1.77;;
37785;SDS011;23625;48.784;9.336;2023-07-29T06:37:56;3.25;;;1.60;;
37785;SDS011;23625;48.784;9.336;2023-07-29T06:40:22;6.57;;;1.90;;
37785;SDS011;23625;48.784;9.336;2023-07-29T06:42:47;3.80;;;2.17;;
37785;SDS011;23625;48.784;9.336;2023-07-29T06:45:13;3.60;;;1.90;;
37785;SDS011;23625;48.784;9.336;2023-07-29T06:47:40;2.40;;;1.60;;
37785;SDS011;23625;48.784;9.336;2023-07-29T06:50:06;3.15;;;1.58;;
37785;SDS011;23625;48.784;9.336;2023-07-29T06:52:32;6.28;;;1.95;;
37785;SDS011;23625;48.784;9.336;2023-07-29T06:54:57;3.10;;;1.63;;
37785;SDS011;23625;48.784;9.336;2023-07-29T06:57:23;3.38;;;1.48;;
37785;SDS011;23625;48.784;9.336;2023-07-29T06:59:49;3.25;;;1.67;;
37785;SDS011;23625;48.784;9.336;2023-07-29T07:02:14;6.53;;;1.85;;
37785;SDS011;23625;48.784;9.336;2023-07-29T07:04:40;2.17;;;1.60;;
37785;SDS011;23625;48.784;9.336;2023-07-29T07:07:06;4.00;;;1.63;;
37785;SDS011;23625;48.784;9.336;2023-07-29T07:09:31;3.97;;;1.70;;
37785;SDS011;23625;48.784;9.336;2023-07-29T07:11:57;3.10;;;1.77;;
37785;SDS011;23625;48.784;9.336;2023-07-29T07:14:22;5.13;;;2.33;;
37785;SDS011;23625;48.784;9.336;2023-07-29T07:16:48;3.45;;;1.90;;
37785;SDS011;23625;48.784;9.336;2023-07-29T07:19:14;4.32;;;2.47;;
37785;SDS011;23625;48.784;9.336;2023-07-29T07:21:39;4.28;;;2.20;;
37785;SDS011;23625;48.784;9.336;2023-07-29T07:24:05;4.00;;;2.30;;
37785;SDS011;23625;48.784;9.336;2023-07-29T07:26:30;5.78;;;2.25;;
37785;SDS011;23625;48.784;9.336;2023-07-29T07:28:56;8.35;;;2.25;;
37785;SDS011;23625;48.784;9.336;2023-07-29T07:31:22;5.28;;;2.22;;
37785;SDS011;23625;48.784;9.336;2023-07-29T07:33:47;4.25;;;2.28;;
37785;SDS011;23625;48.784;9.336;2023-07-29T07:36:13;5.28;;;2.72;;
37785;SDS011;23625;48.784;9.336;2023-07-29T07:38:40;5.78;;;2.53;;
37785;SDS011;23625;48.784;9.336;2023-07-29T07:41:06;7.50;;;2.70;;
37785;SDS011;23625;48.784;9.336;2023-07-29T07:43:32;6.07;;;2.70;;
37785;SDS011;23625;48.784;9.336;2023-07-29T07:45:58;5.65;;;2.80;;
37785;SDS011;23625;48.784;9.336;2023-07-29T07:48:25;6.50;;;2.38;;
37785;SDS011;23625;48.784;9.336;2023-07-29T07:50:51;6.05;;;2.50;;
37785;SDS011;23625;48.784;9.336;2023-07-29T07:53:16;6.72;;;2.63;;
37785;SDS011;23625;48.784;9.336;2023-07-29T07:55:42;2.53;;;1.88;;
37785;SDS011;23625;48.784;9.336;2023-07-29T07:58:07;2.97;;;1.40;;
37785;SDS011;23625;48.784;9.336;2023-07-29T08:00:33;5.25;;;1.70;;
37785;SDS011;23625;48.784;9.336;2023-07-29T08:02:58;4.75;;;1.40;;
37785;SDS011;23625;48.784;9.336;2023-07-29T08:05:24;4.72;;;1.73;;
37785;SDS011;23625;48.784;9.336;2023-07-29T08:07:50;4.13;;;1.10;;
37785;SDS011;23625;48.784;9.336;2023-07-29T08:10:15;4.57;;;1.20;;
37785;SDS011;23625;48.784;9.336;2023-07-29T08:12:41;2.72;;;1.20;;
37785;SDS011;23625;48.784;9.336;2023-07-29T08:15:06;5.65;;;1.30;;
37785;SDS011;23625;48.784;9.336;2023-07-29T08:17:32;1.90;;;1.38;;
37785;SDS011;23625;48.784;9.336;2023-07-29T08:19:58;4.38;;;1.10;;
37785;SDS011;23625;48.784;9.336;2023-07-29T08:22:23;3.83;;;1.55;;
37785;SDS011;23625;48.784;9.336;2023-07-29T08:24:49;3.47;;;1.05;;
37785;SDS011;23625;48.784;9.336;2023-07-29T08:27:14;3.83;;;1.40;;
37785;SDS011;23625;48.784;9.336;2023-07-29T08:29:40;2.70;;;1.33;;
37785;SDS011;23625;48.784;9.336;2023-07-29T08:32:06;4.25;;;1.92;;
37785;SDS011;23625;48.784;9.336;2023-07-29T08:34:31;5.15;;;2.03;;
37785;SDS011;23625;48.784;9.336;2023-07-29T08:36:57;2.05;;;1.30;;
37785;SDS011;23625;48.784;9.336;2023-07-29T08:39:22;2.88;;;1.50;;
37785;SDS011;23625;48.784;9.336;2023-07-29T08:42:01;2.92;;;1.80;;
37785;SDS011;23625;48.784;9.336;2023-07-29T08:44:35;3.08;;;1.42;;
37785;SDS011;23625;48.784;9.336;2023-07-29T08:47:05;5.07;;;1.88;;
37785;SDS011;23625;48.784;9.336;2023-07-29T08:49:32;3.72;;;1.73;;
37785;SDS011;23625;48.784;9.336;2023-07-29T08:51:58;4.22;;;1.88;;
37785;SDS011;23625;48.784;9.336;2023-07-29T08:54:26;4.50;;;1.88;;
37785;SDS011;23625;48.784;9.336;2023-07-29T08:56:51;5.68;;;1.80;;
37785;SDS011;23625;48.784;9.336;2023-07-29T08:59:17;4.72;;;2.05;;
37785;SDS011;23625;48.784;9.336;2023-07-29T09:01:44;3.20;;;1.65;;
37785;SDS011;23625;48.784;9.336;2023-07-29T09:04:10;2.55;;;1.90;;
37785;SDS011;23625;48.784;9.336;2023-07-29T09:06:36;6.90;;;1.90;;
37785;SDS011;23625;48.784;9.336;2023-07-29T09:09:03;11.32;;;2.08;;
37785;SDS011;23625;48.784;9.336;2023-07-29T09:11:29;6.20;;;2.25;;
37785;SDS011;23625;48.784;9.336;2023-07-29T09:13:55;2.88;;;2.00;;
37785;SDS011;23625;48.784;9.336;2023-07-29T09:16:21;7.50;;;2.50;;
37785;SDS011;23625;48.784;9.336;2023-07-29T09:18:48;5.32;;;1.80;;
37785;SDS011;23625;48.784;9.336;2023-07-29T09:21:17;5.60;;;1.70;;
37785;SDS011;23625;48.784;9.336;2023-07-29T09:23:48;8.35;;;1.70;;
37785;SDS011;23625;48.784;9.336;2023-07-29T09:26:18;1.92;;;1.50;;
37785;SDS011;23625;48.784;9.336;2023-07-29T09:28:50;4.18;;;1.70;;
37785;SDS011;23625;48.784;9.336;2023-07-29T09:31:27;7.50;;;2.30;;
37785;SDS011;23625;48.784;9.336;2023-07-29T09:34:01;5.60;;;1.83;;
37785;SDS011;23625;48.784;9.336;2023-07-29T09:36:30;2.30;;;1.35;;
37785;SDS011;23625;48.784;9.336;2023-07-29T09:38:57;4.82;;;2.45;;
37785;SDS011;23625;48.784;9.336;2023-07-29T09:41:23;3.05;;;1.83;;
37785;SDS011;23625;48.784;9.336;2023-07-29T09:43:54;2.90;;;1.75;;
37785;SDS011;23625;48.784;9.336;2023-07-29T09:46:22;4.15;;;1.70;;
37785;SDS011;23625;48.784;9.336;2023-07-29T09:48:52;2.33;;;1.55;;
37785;SDS011;23625;48.784;9.336;2023-07-29T09:51:22;2.20;;;1.63;;
37785;SDS011;23625;48.784;9.336;2023-07-29T09:53:49;3.55;;;1.70;;
37785;SDS011;23625;48.784;9.336;2023-07-29T09:56:16;4.65;;;1.65;;
37785;SDS011;23625;48.784;9.336;2023-07-29T09:58:45;2.38;;;1.80;;
37785;SDS011;23625;48.784;9.336;2023-07-29T10:01:11;3.45;;;1.52;;
37785;SDS011;23625;48.784;9.336;2023-07-29T10:03:37;3.75;;;1.48;;
37785;SDS011;23625;48.784;9.336;2023-07-29T10:06:03;2.75;;;1.40;;
37785;SDS011;23625;48.784;9.336;2023-07-29T10:08:30;5.95;;;1.90;;
37785;SDS011;23625;48.784;9.336;2023-07-29T16:52:01;2.72;;;1.50;;
37785;SDS011;23625;48.784;9.336;2023-07-29T16:54:27;2.42;;;1.40;;
37785;SDS011;23625;48.784;9.336;2023-07-29T16:56:53;2.67;;;1.88;;
37785;SDS011;23625;48.784;9.336;2023-07-29T16:59:18;4.13;;;1.88;;
37785;SDS011;23625;48.784;9.336;2023-07-29T17:01:44;4.15;;;1.50;;
37785;SDS011;23625;48.784;9.336;2023-07-29T17:04:10;1.70;;;1.50;;
37785;SDS011;23625;48.784;9.336;2023-07-29T17:06:35;2.13;;;1.70;;
37785;SDS011;23625;48.784;9.336;2023-07-29T17:09:01;2.33;;;1.55;;
37785;SDS011;23625;48.784;9.336;2023-07-29T17:11:27;2.22;;;1.77;;
37785;SDS011;23625;48.784;9.336;2023-07-29T17:13:52;2.28;;;1.60;;
37785;SDS011;23625;48.784;9.336;2023-07-29T17:16:18;3.60;;;1.30;;
37785;SDS011;23625;48.784;9.336;2023-07-29T17:18:43;1.77;;;1.38;;
37785;SDS011;23625;48.784;9.336;2023-07-29T17:21:09;6.10;;;1.75;;
37785;SDS011;23625;48.784;9.336;2023-07-29T17:23:35;3.55;;;1.88;;
37785;SDS011;23625;48.784;9.336;2023-07-29T17:26:00;1.55;;;1.38;;
37785;SDS011;23625;48.784;9.336;2023-07-29T17:28:27;2.47;;;1.50;;
37785;SDS011;23625;48.784;9.336;2023-07-29T17:30:52;3.97;;;1.70;;
37785;SDS011;23625;48.784;9.336;2023-07-29T17:33:18;2.28;;;1.88;;
37785;SDS011;23625;48.784;9.336;2023-07-29T17:35:45;4.00;;;1.10;;
37785;SDS011;23625;48.784;9.336;2023-07-29T17:38:10;1.38;;;1.02;;
37785;SDS011;23625;48.784;9.336;2023-07-29T17:40:36;1.90;;;1.08;;
37785;SDS011;23625;48.784;9.336;2023-07-29T17:43:02;7.45;;;0.80;;
37785;SDS011;23625;48.784;9.336;2023-07-29T17:45:28;8.82;;;1.10;;
37785;SDS011;23625;48.784;9.336;2023-07-29T17:47:53;2.35;;;0.90;;
37785;SDS011;23625;48.784;9.336;2023-07-29T17:50:19;3.90;;;0.98;;
37785;SDS011;23625;48.784;9.336;2023-07-29T17:52:45;1.25;;;1.00;;
37785;SDS011;23625;48.784;9.336;2023-07-29T17:55:11;2.90;;;1.10;;
37785;SDS011;23625;48.784;9.336;2023-07-29T17:57:37;1.98;;;1.40;;
37785;SDS011;23625;48.784;9.336;2023-07-29T18:00:02;2.47;;;1.52;;
37785;SDS011;23625;48.784;9.336;2023-07-29T18:02:31;10.68;;;3.83;;
37785;SDS011;23625;48.784;9.336;2023-07-29T18:04:57;5.97;;;2.70;;
37785;SDS011;23625;48.784;9.336;2023-07-29T18:07:25;2.45;;;1.70;;
37785;SDS011;23625;48.784;9.336;2023-07-29T18:09:52;3.95;;;1.63;;
37785;SDS011;23625;48.784;9.336;2023-07-29T18:12:17;3.85;;;1.60;;
37785;SDS011;23625;48.784;9.336;2023-07-29T18:14:43;3.55;;;2.03;;
37785;SDS011;23625;48.784;9.336;2023-07-29T18:17:09;2.40;;;1.60;;
37785;SDS011;23625;48.784;9.336;2023-07-29T18:19:35;3.58;;;1.80;;
37785;SDS011;23625;48.784;9.336;2023-07-29T18:22:06;5.13;;;1.73;;
37785;SDS011;23625;48.784;9.336;2023-07-29T18:24:31;4.38;;;2.13;;
37785;SDS011;23625;48.784;9.336;2023-07-29T18:26:57;5.40;;;2.05;;
37785;SDS011;23625;48.784;9.336;2023-07-29T18:29:22;6.50;;;2.20;;
37785;SDS011;23625;48.784;9.336;2023-07-29T18:31:48;4.32;;;2.10;;
37785;SDS011;23625;48.784;9.336;2023-07-29T18:34:16;3.45;;;2.20;;
37785;SDS011;23625;48.784;9.336;2023-07-29T18:36:43;3.35;;;2.33;;
37785;SDS011;23625;48.784;9.336;2023-07-29T18:39:09;3.30;;;1.85;;
37785;SDS011;23625;48.784;9.336;2023-07-29T18:41:38;3.20;;;1.80;;
37785;SDS011;23625;48.784;9.336;2023-07-29T18:44:03;5.97;;;2.33;;
37785;SDS011;23625;48.784;9.336;2023-07-29T18:46:29;4.90;;;2.60;;
37785;SDS011;23625;48.784;9.336;2023-07-29T18:48:55;4.18;;;2.13;;
37785;SDS011;23625;48.784;9.336;2023-07-29T18:51:23;4.75;;;2.55;;
37785;SDS011;23625;48.784;9.336;2023-07-29T18:53:49;3.08;;;1.85;;
37785;SDS011;23625;48.784;9.336;2023-07-29T18:56:15;4.90;;;2.25;;
37785;SDS011;23625;48.784;9.336;2023-07-29T18:58:40;2.97;;;2.47;;
37785;SDS011;23625;48.784;9.336;2023-07-29T19:01:06;9.50;;;3.42;;
37785;SDS011;23625;48.784;9.336;2023-07-29T19:03:31;3.92;;;2.47;;
37785;SDS011;23625;48.784;9.336;2023-07-29T19:05:57;2.83;;;1.80;;
37785;SDS011;23625;48.784;9.336;2023-07-29T19:08:25;5.93;;;2.20;;
37785;SDS011;23625;48.784;9.336;2023-07-29T19:10:51;6.80;;;2.78;;
37785;SDS011;23625;48.784;9.336;2023-07-29T19:13:16;4.32;;;2.53;;
37785;SDS011;23625;48.784;9.336;2023-07-29T19:15:49;5.50;;;3.47;;
37785;SDS011;23625;48.784;9.336;2023-07-29T19:18:19;3.75;;;2.60;;
37785;SDS011;23625;48.784;9.336;2023-07-29T19:20:51;6.38;;;2.83;;
37785;SDS011;23625;48.784;9.336;2023-07-29T19:23:18;7.32;;;3.08;;
37785;SDS011;23625;48.784;9.336;2023-07-29T19:25:47;6.10;;;2.42;;
37785;SDS011;23625;48.784;9.336;2023-07-29T19:28:14;4.68;;;2.25;;
37785;SDS011;23625;48.784;9.336;2023-07-29T19:30:39;3.53;;;2.65;;
37785;SDS011;23625;48.784;9.336;2023-07-29T19:33:05;6.15;;;3.45;;
37785;SDS011;23625;48.784;9.336;2023-07-29T19:35:32;6.88;;;3.38;;
37785;SDS011;23625;48.784;9.336;2023-07-29T19:37:58;4.13;;;2.88;;
37785;SDS011;23625;48.784;9.336;2023-07-29T19:40:23;5.45;;;3.17;;
37785;SDS011;23625;48.784;9.336;2023-07-29T19:42:51;6.60;;;3.20;;
37785;SDS011;23625;48.784;9.336;2023-07-29T19:45:19;6.03;;;3.25;;
37785;SDS011;23625;48.784;9.336;2023-07-29T19:47:45;5.20;;;3.00;;
37785;SDS011;23625;48.784;9.336;2023-07-29T19:50:11;5.78;;;2.83;;
37785;SDS011;23625;48.784;9.336;2023-07-29T19:52:37;4.78;;;3.15;;
37785;SDS011;23625;48.784;9.336;2023-07-29T19:55:03;4.97;;;3.15;;
37785;SDS011;23625;48.784;9.336;2023-07-29T19:57:29;6.10;;;3.08;;
37785;SDS011;23625;48.784;9.336;2023-07-29T19:59:55;8.65;;;3.50;;
37785;SDS011;23625;48.784;9.336;2023-07-29T20:02:21;5.18;;;2.95;;
37785;SDS011;23625;48.784;9.336;2023-07-29T20:04:50;5.90;;;3.03;;
37785;SDS011;23625;48.784;9.336;2023-07-29T20:07:16;5.85;;;3.33;;
37785;SDS011;23625;48.784;9.336;2023-07-29T20:09:42;5.82;;;3.45;;
37785;SDS011;23625;48.784;9.336;2023-07-29T20:12:08;5.38;;;2.90;;
37785;SDS011;23625;48.784;9.336;2023-07-29T20:14:33;7.20;;;3.05;;
37785;SDS011;23625;48.784;9.336;2023-07-29T20:16:59;5.93;;;3.03;;
37785;SDS011;23625;48.784;9.336;2023-07-29T20:19:25;10.02;;;4.45;;
37785;SDS011;23625;48.784;9.336;2023-07-29T20:21:51;7.40;;;3.47;;
37785;SDS011;23625;48.784;9.336;2023-07-29T20:24:16;5.03;;;3.28;;
37785;SDS011;23625;48.784;9.336;2023-07-29T20:26:42;6.72;;;2.90;;
37785;SDS011;23625;48.784;9.336;2023-07-29T20:29:08;5.30;;;3.30;;
37785;SDS011;23625;48.784;9.336;2023-07-29T20:31:33;5.43;;;3.45;;
37785;SDS011;23625;48.784;9.336;2023-07-29T20:33:59;7.10;;;3.58;;
37785;SDS011;23625;48.784;9.336;2023-07-29T20:36:24;11.95;;;3.80;;
37785;SDS011;23625;48.784;9.336;2023-07-29T20:38:53;6.93;;;3.17;;
37785;SDS011;23625;48.784;9.336;2023-07-29T20:41:20;5.30;;;3.28;;
37785;SDS011;23625;48.784;9.336;2023-07-29T20:43:46;6.80;;;3.58;;
37785;SDS011;23625;48.784;9.336;2023-07-29T20:46:21;6.43;;;3.42;;
37785;SDS011;23625;48.784;9.336;2023-07-29T20:48:49;6.30;;;3.55;;
37785;SDS011;23625;48.784;9.336;2023-07-29T20:51:18;7.10;;;3.55;;
37785;SDS011;23625;48.784;9.336;2023-07-29T20:53:44;9.57;;;3.45;;
37785;SDS011;23625;48.784;9.336;2023-07-29T20:56:11;6.13;;;3.63;;
37785;SDS011;23625;48.784;9.336;2023-07-29T20:58:38;6.03;;;3.42;;
37785;SDS011;23625;48.784;9.336;2023-07-29T21:01:04;7.60;;;3.92;;
37785;SDS011;23625;48.784;9.336;2023-07-29T21:03:30;6.55;;;3.38;;
37785;SDS011;23625;48.784;9.336;2023-07-29T21:05:55;5.80;;;3.35;;
37785;SDS011;23625;48.784;9.336;2023-07-29T21:08:21;7.80;;;3.50;;
37785;SDS011;23625;48.784;9.336;2023-07-29T21:10:50;10.48;;;3.78;;
37785;SDS011;23625;48.784;9.336;2023-07-29T21:13:16;5.75;;;4.03;;
37785;SDS011;23625;48.784;9.336;2023-07-29T21:15:51;6.32;;;3.42;;
37785;SDS011;23625;48.784;9.336;2023-07-29T21:18:18;7.88;;;3.78;;
37785;SDS011;23625;48.784;9.336;2023-07-29T21:20:43;5.40;;;3.25;;
37785;SDS011;23625;48.784;9.336;2023-07-29T21:23:09;7.07;;;3.03;;
37785;SDS011;23625;48.784;9.336;2023-07-29T21:25:35;6.03;;;3.38;;
37785;SDS011;23625;48.784;9.336;2023-07-29T21:28:00;5.13;;;3.58;;